createdAt,value
2019-01-06T00:03:20.377Z,12.80
2019-01-06T00:06:20.528Z,13.40
2019-01-06T00:09:20.066Z,10.83
2019-01-06T00:12:14.472Z,9.93
2019-01-06T00:15:14.401Z,12.07
2019-01-06T00:18:14.693Z,13.80
2019-01-06T00:21:14.560Z,15.67
2019-01-06T00:24:11.688Z,11.00
2019-01-06T00:27:14.767Z,12.77
2019-01-06T00:30:14.783Z,11.57
2019-01-06T00:33:14.615Z,11.63
2019-01-06T00:36:14.447Z,17.80
2019-01-06T00:39:13.985Z,14.47
2019-01-06T00:42:13.472Z,12.47
2019-01-06T00:45:10.761Z,10.30
2019-01-06T00:48:17.848Z,14.63
2019-01-06T00:51:17.354Z,16.87
2019-01-06T00:54:11.208Z,13.73
2019-01-06T00:57:14.296Z,16.07
2019-01-06T01:00:13.440Z,14.50
2019-01-06T01:03:13.415Z,12.13
2019-01-06T01:06:13.093Z,12.70
2019-01-06T01:09:12.683Z,10.53
2019-01-06T01:12:12.125Z,14.73
2019-01-06T01:15:11.716Z,15.17
2019-01-06T01:18:17.814Z,17.20
2019-01-06T01:21:20.300Z,12.87
2019-01-06T01:24:25.875Z,15.50
2019-01-06T01:27:28.824Z,12.97
2019-01-06T01:30:28.549Z,15.97
2019-01-06T01:33:28.836Z,14.87
2019-01-06T01:36:28.285Z,13.80
2019-01-06T01:39:33.848Z,12.73
2019-01-06T01:42:33.975Z,12.67
2019-01-06T01:45:33.952Z,14.00
2019-01-06T01:48:34.114Z,12.37
2019-01-06T01:51:33.864Z,11.47
2019-01-06T01:57:43.549Z,14.50
2019-01-06T02:00:46.681Z,13.33
2019-01-06T02:03:46.730Z,15.33
2019-01-06T02:06:46.209Z,14.07
2019-01-06T02:09:45.680Z,15.57
2019-01-06T02:12:46.335Z,14.00
2019-01-06T02:15:45.987Z,13.33
2019-01-06T02:18:45.429Z,15.83
2019-01-06T02:21:45.580Z,15.33
2019-01-06T02:24:45.405Z,11.70
2019-01-06T02:27:44.896Z,11.80
2019-01-06T02:30:45.182Z,16.17
2019-01-06T02:33:44.746Z,14.80
2019-01-06T02:36:44.272Z,13.87
2019-01-06T02:43:03.187Z,16.83
2019-01-06T02:46:03.397Z,17.77
2019-01-06T02:49:02.898Z,14.50
2019-01-06T02:52:03.127Z,16.60
2019-01-06T02:55:02.577Z,13.63
2019-01-06T02:58:02.146Z,15.23
2019-01-06T03:01:07.663Z,16.87
2019-01-06T03:03:57.904Z,13.73
2019-01-06T03:06:53.837Z,14.77
2019-01-06T03:09:54.181Z,17.20
2019-01-06T03:16:04.030Z,11.83
2019-01-06T03:19:05.414Z,15.33
2019-01-06T03:22:05.514Z,13.23
2019-01-06T03:25:08.074Z,12.80
2019-01-06T03:28:07.945Z,14.83
2019-01-06T03:30:56.196Z,11.33
2019-01-06T03:34:03.392Z,16.43
2019-01-06T03:37:03.138Z,9.77
2019-01-06T03:40:02.659Z,9.10
2019-01-06T03:43:07.943Z,12.17
2019-01-06T03:46:08.073Z,12.97
2019-01-06T03:49:13.807Z,11.37
2019-01-06T03:52:13.620Z,13.73
2019-01-06T03:55:14.017Z,9.60
2019-01-06T03:58:13.747Z,10.90
2019-01-06T04:01:13.286Z,10.73
2019-01-06T04:04:11.568Z,10.10
2019-01-06T04:07:10.693Z,7.13
2019-01-06T04:10:13.655Z,8.23
2019-01-06T04:13:19.736Z,7.27
2019-01-06T04:16:19.532Z,6.10
2019-01-06T04:19:19.232Z,6.63
2019-01-06T04:22:19.136Z,7.90
2019-01-06T04:25:23.219Z,5.57
2019-01-06T04:28:30.447Z,8.67
2019-01-06T04:31:30.452Z,5.73
2019-01-06T04:34:30.724Z,7.40
2019-01-06T04:37:36.332Z,5.87
2019-01-06T04:40:35.941Z,5.67
2019-01-06T04:43:35.312Z,6.70
2019-01-06T04:46:32.775Z,6.03
2019-01-06T04:49:38.639Z,7.83
2019-01-06T04:52:38.242Z,6.13
2019-01-06T04:55:40.872Z,7.33
2019-01-06T04:58:41.251Z,10.40
2019-01-06T05:01:40.812Z,7.43
2019-01-06T05:04:43.105Z,7.93
2019-01-06T05:07:42.951Z,9.63
2019-01-06T05:10:42.583Z,11.33
2019-01-06T05:13:41.973Z,11.73
2019-01-06T05:16:42.301Z,9.83
2019-01-06T05:19:42.651Z,11.13
2019-01-06T05:22:35.674Z,8.90
2019-01-06T05:25:23.729Z,15.57
2019-01-06T05:28:30.846Z,12.73
2019-01-06T05:31:30.557Z,11.37
2019-01-06T05:34:30.535Z,11.73
2019-01-06T05:37:18.460Z,11.33
2019-01-06T05:40:25.620Z,12.47
2019-01-06T05:43:20.368Z,12.30
2019-01-06T05:46:19.759Z,12.10
2019-01-06T05:49:25.334Z,11.53
2019-01-06T05:52:20.367Z,14.13
2019-01-06T05:55:20.716Z,12.63
2019-01-06T05:58:13.675Z,16.13
2019-01-06T06:01:20.757Z,15.37
2019-01-06T06:07:27.538Z,17.97
2019-01-06T06:10:26.956Z,18.20
2019-01-06T06:13:27.395Z,13.17
2019-01-06T06:16:27.519Z,24.43
2019-01-06T06:19:29.992Z,28.13
2019-01-06T06:22:29.980Z,27.40
2019-01-06T06:25:31.758Z,25.50
2019-01-06T06:28:31.819Z,16.63
2019-01-06T06:31:37.395Z,23.57
2019-01-06T06:34:37.476Z,22.30
2019-01-06T06:37:38.463Z,25.20
2019-01-06T06:40:27.869Z,22.60
2019-01-06T06:43:28.233Z,21.10
2019-01-06T06:46:27.801Z,29.10
2019-01-06T06:49:28.104Z,26.67
2019-01-06T06:52:35.240Z,22.03
2019-01-06T06:55:38.228Z,29.40
2019-01-06T06:58:42.456Z,32.97
2019-01-06T07:02:01.281Z,21.17
2019-01-06T07:05:00.941Z,33.57
2019-01-06T07:08:00.496Z,27.27
2019-01-06T07:11:00.757Z,20.77
2019-01-06T07:13:58.748Z,28.90
2019-01-06T07:16:58.877Z,30.23
2019-01-06T07:19:55.163Z,19.93
2019-01-06T07:22:54.913Z,28.00
2019-01-06T07:25:53.257Z,28.80
2019-01-06T07:28:52.665Z,32.97
2019-01-06T07:31:52.963Z,24.73
2019-01-06T07:34:53.341Z,40.90
2019-01-06T07:37:52.980Z,26.60
2019-01-06T07:40:52.570Z,21.83
2019-01-06T07:43:52.149Z,36.60
2019-01-06T07:46:52.537Z,33.97
2019-01-06T07:49:53.052Z,25.63
2019-01-06T07:56:08.655Z,37.63
2019-01-06T07:59:08.097Z,26.37
2019-01-06T08:02:07.689Z,28.87
2019-01-06T08:08:10.705Z,22.47
2019-01-06T08:11:10.153Z,20.90
2019-01-06T08:14:10.507Z,20.30
2019-01-06T08:17:13.040Z,18.57
2019-01-06T08:19:47.915Z,22.83
2019-01-06T08:22:44.988Z,20.57
2019-01-06T08:25:30.945Z,24.53
2019-01-06T08:28:30.607Z,27.47
2019-01-06T08:31:30.509Z,34.33
2019-01-06T08:34:24.511Z,24.57
2019-01-06T08:37:24.132Z,23.40
2019-01-06T08:40:24.031Z,26.93
2019-01-06T08:43:14.684Z,23.60
2019-01-06T08:46:01.269Z,21.93
2019-01-06T08:48:58.392Z,19.60
2019-01-06T08:51:45.028Z,26.27
2019-01-06T08:54:31.689Z,21.07
2019-01-06T08:57:31.699Z,25.93
2019-01-06T09:00:18.038Z,22.03
2019-01-06T09:03:04.568Z,28.07
2019-01-06T09:05:51.349Z,23.93
2019-01-06T09:08:38.036Z,25.73
2019-01-06T09:11:29.099Z,21.17
2019-01-06T09:14:15.756Z,28.70
2019-01-06T09:17:03.684Z,23.37
2019-01-06T09:19:52.656Z,19.97
2019-01-06T09:22:39.156Z,18.23
2019-01-06T09:25:25.931Z,21.93
2019-01-06T09:28:13.314Z,22.97
2019-01-06T09:30:59.857Z,29.73
2019-01-06T09:33:46.663Z,26.10
2019-01-06T09:36:34.572Z,18.20
2019-01-06T09:39:37.389Z,24.90
2019-01-06T09:42:25.336Z,21.17
2019-01-06T09:45:04.737Z,21.27
2019-01-06T09:47:55.276Z,20.93
2019-01-06T09:50:41.045Z,20.67
2019-01-06T09:53:44.164Z,24.97
2019-01-06T09:56:33.252Z,21.90
2019-01-06T09:59:19.589Z,14.23
2019-01-06T10:02:15.836Z,17.83
2019-01-06T10:04:56.557Z,24.83
2019-01-06T10:07:43.088Z,20.73
2019-01-06T10:10:38.024Z,20.77
2019-01-06T10:13:24.355Z,18.67
2019-01-06T10:16:25.085Z,25.43
2019-01-06T10:19:11.795Z,18.63
2019-01-06T10:21:58.476Z,26.43
2019-01-06T10:24:52.179Z,16.77
2019-01-06T10:27:40.223Z,20.93
2019-01-06T10:30:25.347Z,22.83
2019-01-06T10:33:31.227Z,23.30
2019-01-06T10:36:17.340Z,18.10
2019-01-06T10:38:57.864Z,20.80
2019-01-06T10:41:42.179Z,19.17
2019-01-06T10:44:28.660Z,20.87
2019-01-06T10:47:15.271Z,15.90
2019-01-06T10:50:08.860Z,18.07
2019-01-06T10:52:55.513Z,16.00
2019-01-06T10:55:46.632Z,23.17
2019-01-06T10:58:33.076Z,16.53
2019-01-06T11:01:30.217Z,19.33
2019-01-06T11:04:24.028Z,22.47
2019-01-06T11:07:08.805Z,18.70
2019-01-06T11:09:55.363Z,13.13
2019-01-06T11:13:03.867Z,12.40
2019-01-06T11:15:50.324Z,21.87
2019-01-06T11:18:36.928Z,20.77
2019-01-06T11:21:34.191Z,18.70
2019-01-06T11:24:15.607Z,15.70
2019-01-06T11:27:09.640Z,19.20
2019-01-06T11:30:03.418Z,19.23
2019-01-06T11:32:55.445Z,17.93
2019-01-06T11:35:41.809Z,14.03
2019-01-06T11:38:28.431Z,16.80
2019-01-06T11:41:10.170Z,18.00
2019-01-06T11:44:02.824Z,16.20
2019-01-06T11:46:49.335Z,14.90
2019-01-06T11:49:35.929Z,21.60
2019-01-06T11:52:27.097Z,19.33
2019-01-06T11:55:27.002Z,18.83
2019-01-06T11:58:24.025Z,15.10
2019-01-06T12:01:11.937Z,14.10
2019-01-06T12:04:05.760Z,17.23
2019-01-06T12:06:52.757Z,21.00
2019-01-06T12:09:40.688Z,18.30
2019-01-06T12:12:28.664Z,13.67
2019-01-06T12:15:15.111Z,15.90
2019-01-06T12:18:01.857Z,20.67
2019-01-06T12:20:58.765Z,16.63
2019-01-06T12:23:39.345Z,19.67
2019-01-06T12:26:42.299Z,12.77
2019-01-06T12:29:28.319Z,8.83
2019-01-06T12:32:28.631Z,11.10
2019-01-06T12:35:25.760Z,10.97
2019-01-06T12:38:28.615Z,11.93
2019-01-06T12:41:31.870Z,17.43
2019-01-06T12:44:32.072Z,14.97
2019-01-06T12:47:26.438Z,15.77
2019-01-06T12:50:02.142Z,17.30
2019-01-06T12:53:02.361Z,10.43
2019-01-06T12:55:49.086Z,14.17
2019-01-06T12:58:35.843Z,16.17
2019-01-06T13:01:23.044Z,12.33
2019-01-06T13:04:19.847Z,10.53
2019-01-06T13:07:07.807Z,12.60
2019-01-06T13:10:07.372Z,10.97
2019-01-06T13:13:01.308Z,11.53
2019-01-06T13:15:58.424Z,11.33
2019-01-06T13:18:45.072Z,11.30
2019-01-06T13:21:27.247Z,12.57
2019-01-06T13:24:15.289Z,10.60
2019-01-06T13:27:00.819Z,15.27
2019-01-06T13:29:57.752Z,16.60
2019-01-06T13:32:44.381Z,12.97
2019-01-06T13:35:31.233Z,18.03
2019-01-06T13:38:19.252Z,18.97
2019-01-06T13:41:13.318Z,19.33
2019-01-06T13:43:57.860Z,18.03
2019-01-06T13:46:54.775Z,12.90
2019-01-06T13:49:41.272Z,13.60
2019-01-06T13:52:44.307Z,13.97
2019-01-06T13:55:30.929Z,10.93
2019-01-06T13:58:24.580Z,11.77
2019-01-06T14:01:20.020Z,17.20
2019-01-06T14:04:23.192Z,15.70
2019-01-06T14:07:29.366Z,12.83
2019-01-06T14:10:29.568Z,11.23
2019-01-06T14:13:16.127Z,12.43
2019-01-06T14:16:01.186Z,13.63
2019-01-06T14:18:47.930Z,14.57
2019-01-06T14:21:34.728Z,11.67
2019-01-06T14:24:28.704Z,14.10
2019-01-06T14:27:22.585Z,14.13
2019-01-06T14:30:21.872Z,14.70
2019-01-06T14:33:11.870Z,9.27
2019-01-06T14:36:03.793Z,9.83
2019-01-06T14:39:00.768Z,7.67
2019-01-06T14:41:54.207Z,11.87
2019-01-06T14:44:40.703Z,12.43
2019-01-06T14:47:27.130Z,13.50
2019-01-06T14:50:20.199Z,17.07
2019-01-06T14:53:08.104Z,9.93
2019-01-06T14:55:56.123Z,12.67
2019-01-06T14:58:36.323Z,13.83
2019-01-06T15:01:23.048Z,14.23
2019-01-06T15:04:11.021Z,13.00
2019-01-06T15:06:51.936Z,14.03
2019-01-06T15:09:35.845Z,11.87
2019-01-06T15:12:42.352Z,13.87
2019-01-06T15:15:29.182Z,12.77
2019-01-06T15:18:34.747Z,12.17
2019-01-06T15:21:25.585Z,11.27
2019-01-06T15:24:25.368Z,10.67
2019-01-06T15:27:23.050Z,9.93
2019-01-06T15:30:06.450Z,13.70
2019-01-06T15:32:52.857Z,11.47
2019-01-06T15:35:41.988Z,9.63
2019-01-06T15:38:38.930Z,12.33
2019-01-06T15:41:25.792Z,12.70
2019-01-06T15:44:29.019Z,9.67
2019-01-06T15:47:15.694Z,12.57
2019-01-06T15:50:02.347Z,10.37
2019-01-06T15:52:51.152Z,11.13
2019-01-06T15:55:37.549Z,13.80
2019-01-06T15:58:24.247Z,11.37
2019-01-06T16:01:15.218Z,10.33
2019-01-06T16:04:06.416Z,13.77
2019-01-06T16:06:54.398Z,14.13
2019-01-06T16:09:41.350Z,11.77
2019-01-06T16:12:18.064Z,13.73
2019-01-06T16:15:15.339Z,18.17
2019-01-06T16:17:58.817Z,15.97
2019-01-06T16:20:58.207Z,18.73
2019-01-06T16:23:44.988Z,20.13
2019-01-06T16:26:32.360Z,21.03
2019-01-06T16:29:21.996Z,17.77
2019-01-06T16:32:08.657Z,22.20
2019-01-06T16:34:55.403Z,21.53
2019-01-06T16:37:46.412Z,16.63
2019-01-06T16:40:35.220Z,20.67
2019-01-06T16:43:23.314Z,16.13
2019-01-06T16:46:10.164Z,21.33
2019-01-06T16:49:12.390Z,19.97
2019-01-06T16:51:58.884Z,17.70
2019-01-06T16:54:55.991Z,17.27
2019-01-06T16:57:45.810Z,13.43
2019-01-06T17:00:33.696Z,22.50
2019-01-06T17:03:21.885Z,16.67
2019-01-06T17:06:22.029Z,19.80
2019-01-06T17:09:08.836Z,16.87
2019-01-06T17:11:57.222Z,14.93
2019-01-06T17:14:43.636Z,16.77
2019-01-06T17:17:31.527Z,17.67
2019-01-06T17:20:25.350Z,17.90
2019-01-06T17:23:13.349Z,16.70
2019-01-06T17:26:00.070Z,18.60
2019-01-06T17:29:01.191Z,21.10
2019-01-06T17:31:49.077Z,22.27
2019-01-06T17:34:42.894Z,16.20
2019-01-06T17:37:29.339Z,19.93
2019-01-06T17:40:16.121Z,16.17
2019-01-06T17:43:02.789Z,21.73
2019-01-06T17:45:49.403Z,17.13
2019-01-06T17:48:35.924Z,18.10
2019-01-06T17:51:30.792Z,13.97
2019-01-06T17:54:17.225Z,12.63
2019-01-06T17:57:03.997Z,17.53
2019-01-06T17:59:55.245Z,20.13
2019-01-06T18:02:40.695Z,12.53
2019-01-06T18:05:28.710Z,15.27
2019-01-06T18:08:14.657Z,17.23
2019-01-06T18:11:05.842Z,20.80
2019-01-06T18:14:12.152Z,24.90
2019-01-06T18:17:00.127Z,21.60
2019-01-06T18:20:00.041Z,22.23
2019-01-06T18:22:46.476Z,21.73
2019-01-06T18:25:33.197Z,14.13
2019-01-06T18:28:19.849Z,14.60
2019-01-06T18:30:58.519Z,12.97
2019-01-06T18:33:44.800Z,23.27
2019-01-06T18:36:31.600Z,24.97
2019-01-06T18:39:37.829Z,19.43
2019-01-06T18:42:24.674Z,21.33
2019-01-06T18:45:15.596Z,29.80
2019-01-06T18:48:12.568Z,19.57
2019-01-06T18:50:59.264Z,20.57
2019-01-06T18:53:50.291Z,22.97
2019-01-06T18:56:39.280Z,16.07
2019-01-06T18:59:36.586Z,17.43
2019-01-06T19:02:23.183Z,22.17
2019-01-06T19:05:19.197Z,18.07
2019-01-06T19:08:01.712Z,25.63
2019-01-06T19:10:50.002Z,19.90
2019-01-06T19:13:47.645Z,15.07
2019-01-06T19:16:34.095Z,17.90
2019-01-06T19:19:20.713Z,17.80
2019-01-06T19:22:27.207Z,16.97
2019-01-06T19:25:33.292Z,13.90
2019-01-06T19:28:20.019Z,18.87
2019-01-06T19:31:13.465Z,20.87
2019-01-06T19:34:04.358Z,21.27
2019-01-06T19:37:04.390Z,20.70
2019-01-06T19:39:51.207Z,20.10
2019-01-06T19:42:37.994Z,25.40
2019-01-06T19:45:33.763Z,20.27
2019-01-06T19:48:20.044Z,24.10
2019-01-06T19:51:08.366Z,16.17
2019-01-06T19:53:59.525Z,20.67
2019-01-06T19:56:53.579Z,21.63
2019-01-06T19:59:40.400Z,16.83
2019-01-06T20:02:28.456Z,16.10
2019-01-06T20:05:16.576Z,26.60
2019-01-06T20:07:59.380Z,21.83
2019-01-06T20:11:06.027Z,19.13
2019-01-06T20:14:04.004Z,17.27
2019-01-06T20:16:50.457Z,10.53
2019-01-06T20:19:40.530Z,19.90
2019-01-06T20:22:41.903Z,16.57
2019-01-06T20:25:30.523Z,23.97
2019-01-06T20:28:21.412Z,22.90
2019-01-06T20:31:07.861Z,23.63
2019-01-06T20:33:51.866Z,24.53
2019-01-06T20:36:38.620Z,17.40
2019-01-06T20:39:41.909Z,13.13
2019-01-06T20:42:29.841Z,16.27
2019-01-06T20:45:23.986Z,17.83
2019-01-06T20:48:09.920Z,18.80
2019-01-06T20:50:57.932Z,25.10
2019-01-06T20:53:53.746Z,27.97
2019-01-06T20:56:40.327Z,14.73
2019-01-06T20:59:27.295Z,16.60
2019-01-06T21:02:13.749Z,21.47
2019-01-06T21:05:05.117Z,12.67
2019-01-06T21:08:11.383Z,25.43
2019-01-06T21:10:59.324Z,22.93
2019-01-06T21:14:05.327Z,20.97
2019-01-06T21:16:56.223Z,25.97
2019-01-06T21:19:40.715Z,18.47
2019-01-06T21:22:43.603Z,23.73
2019-01-06T21:25:30.091Z,33.47
2019-01-06T21:28:16.489Z,21.30
2019-01-06T21:31:16.027Z,14.43
2019-01-06T21:34:02.459Z,23.60
2019-01-06T21:37:05.776Z,25.17
2019-01-06T21:39:59.756Z,27.67
2019-01-06T21:42:53.432Z,22.40
2019-01-06T21:45:44.443Z,24.67
2019-01-06T21:48:31.104Z,22.40
2019-01-06T21:51:17.819Z,25.73
2019-01-06T21:54:21.008Z,24.53
2019-01-06T21:57:11.940Z,19.23
2019-01-06T21:59:59.931Z,19.20
2019-01-06T22:02:47.819Z,16.90
2019-01-06T22:05:41.746Z,27.03
2019-01-06T22:08:28.197Z,18.27
2019-01-06T22:11:14.871Z,20.40
2019-01-06T22:13:57.427Z,25.70
2019-01-06T22:16:49.324Z,18.53
2019-01-06T22:19:34.544Z,26.77
2019-01-06T22:22:20.292Z,23.43
2019-01-06T22:25:07.035Z,17.33
2019-01-06T22:27:53.615Z,21.47
2019-01-06T22:30:40.399Z,29.20
2019-01-06T22:33:37.516Z,17.03
2019-01-06T22:36:23.220Z,14.33
2019-01-06T22:39:08.463Z,15.93
2019-01-06T22:42:09.484Z,18.17
2019-01-06T22:44:57.395Z,17.67
2019-01-06T22:47:57.785Z,16.37
2019-01-06T22:50:44.407Z,12.63
2019-01-06T22:53:31.032Z,23.50
2019-01-06T22:56:22.035Z,20.77
2019-01-06T22:59:25.551Z,13.47
2019-01-06T23:02:13.856Z,12.80
2019-01-06T23:05:01.678Z,15.03
2019-01-06T23:07:58.387Z,21.67
2019-01-06T23:10:46.556Z,28.83
2019-01-06T23:13:32.847Z,23.53
2019-01-06T23:16:16.615Z,35.43
2019-01-06T23:19:03.428Z,29.37
2019-01-06T23:21:54.367Z,21.70
2019-01-06T23:24:51.212Z,34.93
2019-01-06T23:27:39.124Z,25.37
2019-01-06T23:30:32.939Z,18.37
2019-01-06T23:33:40.121Z,19.73
2019-01-06T23:36:39.867Z,24.47
2019-01-06T23:39:39.237Z,33.57
2019-01-06T23:42:38.684Z,33.60
2019-01-06T23:45:38.581Z,28.43
2019-01-06T23:48:37.978Z,18.70
2019-01-06T23:51:37.386Z,28.67
2019-01-06T23:54:36.770Z,29.07
2019-01-06T23:57:36.898Z,26.43
